sensor_id;sensor_type;location;lat;lon;timestamp;pressure;altitude;pressure_sealevel;temperature;humidity
47742;BME280;33504;52.066;6.096;2023-05-07T00:01:33;101588.33;;;18.74;46.50
47742;BME280;33504;52.066;6.096;2023-05-07T00:04:00;101590.50;;;18.75;46.70
47742;BME280;33504;52.066;6.096;2023-05-07T00:06:27;101589.93;;;18.54;46.82
47742;BME280;33504;52.066;6.096;2023-05-07T00:08:56;101591.44;;;18.74;46.74
47742;BME280;33504;52.066;6.096;2023-05-07T00:11:23;101593.32;;;19.02;46.65
47742;BME280;33504;52.066;6.096;2023-05-07T00:13:50;101596.01;;;19.01;46.79
47742;BME280;33504;52.066;6.096;2023-05-07T00:16:17;101595.34;;;18.74;46.88
47742;BME280;33504;52.066;6.096;2023-05-07T00:18:44;101593.41;;;18.71;46.64
47742;BME280;33504;52.066;6.096;2023-05-07T00:21:11;101588.73;;;18.72;46.61
47742;BME280;33504;52.066;6.096;2023-05-07T00:23:39;101591.84;;;18.73;46.47
47742;BME280;33504;52.066;6.096;2023-05-07T00:26:05;101589.89;;;18.71;46.40
47742;BME280;33504;52.066;6.096;2023-05-07T00:28:32;101588.90;;;18.70;46.45
47742;BME280;33504;52.066;6.096;2023-05-07T00:31:00;101589.44;;;18.71;46.55
47742;BME280;33504;52.066;6.096;2023-05-07T00:33:27;101589.79;;;18.98;46.59
47742;BME280;33504;52.066;6.096;2023-05-07T00:35:54;101588.10;;;19.01;46.49
47742;BME280;33504;52.066;6.096;2023-05-07T00:38:21;101585.26;;;19.03;46.38
47742;BME280;33504;52.066;6.096;2023-05-07T00:40:49;101580.11;;;18.71;46.19
47742;BME280;33504;52.066;6.096;2023-05-07T00:43:16;101571.32;;;18.73;46.13
47742;BME280;33504;52.066;6.096;2023-05-07T00:45:43;101566.18;;;19.00;46.22
47742;BME280;33504;52.066;6.096;2023-05-07T00:48:10;101565.16;;;18.96;46.21
47742;BME280;33504;52.066;6.096;2023-05-07T00:50:38;101564.77;;;19.14;46.26
47742;BME280;33504;52.066;6.096;2023-05-07T00:53:05;101559.93;;;18.86;46.27
47742;BME280;33504;52.066;6.096;2023-05-07T00:55:33;101556.80;;;18.80;46.33
47742;BME280;33504;52.066;6.096;2023-05-07T00:58:00;101557.40;;;18.76;46.34
47742;BME280;33504;52.066;6.096;2023-05-07T01:00:27;101556.56;;;18.69;46.42
47742;BME280;33504;52.066;6.096;2023-05-07T01:02:53;101554.73;;;18.64;46.53
47742;BME280;33504;52.066;6.096;2023-05-07T01:05:23;101553.22;;;18.57;46.67
47742;BME280;33504;52.066;6.096;2023-05-07T01:07:50;101551.50;;;18.50;46.82
47742;BME280;33504;52.066;6.096;2023-05-07T01:10:20;101550.17;;;18.64;46.91
47742;BME280;33504;52.066;6.096;2023-05-07T01:12:48;101550.09;;;18.57;46.97
47742;BME280;33504;52.066;6.096;2023-05-07T01:15:17;101549.76;;;18.54;46.97
47742;BME280;33504;52.066;6.096;2023-05-07T01:17:44;101549.03;;;18.26;46.89
47742;BME280;33504;52.066;6.096;2023-05-07T01:20:11;101546.76;;;18.40;46.91
47742;BME280;33504;52.066;6.096;2023-05-07T01:22:39;101546.22;;;18.17;47.07
47742;BME280;33504;52.066;6.096;2023-05-07T01:25:07;101546.79;;;18.15;47.05
47742;BME280;33504;52.066;6.096;2023-05-07T01:27:35;101544.73;;;18.10;46.92
47742;BME280;33504;52.066;6.096;2023-05-07T01:30:02;101545.29;;;18.30;47.08
47742;BME280;33504;52.066;6.096;2023-05-07T01:32:33;101548.32;;;18.25;47.07
47742;BME280;33504;52.066;6.096;2023-05-07T01:35:04;101549.09;;;18.44;47.15
47742;BME280;33504;52.066;6.096;2023-05-07T01:37:32;101544.46;;;17.96;47.21
47742;BME280;33504;52.066;6.096;2023-05-07T01:40:01;101548.22;;;17.95;47.20
47742;BME280;33504;52.066;6.096;2023-05-07T01:42:29;101544.56;;;17.92;47.19
47742;BME280;33504;52.066;6.096;2023-05-07T01:44:56;101545.31;;;17.89;47.27
47742;BME280;33504;52.066;6.096;2023-05-07T01:47:23;101544.21;;;18.10;47.26
47742;BME280;33504;52.066;6.096;2023-05-07T01:49:51;101545.77;;;17.86;47.31
47742;BME280;33504;52.066;6.096;2023-05-07T01:52:18;101548.01;;;18.07;47.34
47742;BME280;33504;52.066;6.096;2023-05-07T01:54:45;101547.30;;;18.02;47.30
47742;BME280;33504;52.066;6.096;2023-05-07T01:57:12;101545.69;;;18.00;47.43
47742;BME280;33504;52.066;6.096;2023-05-07T01:59:39;101543.68;;;17.96;47.50
47742;BME280;33504;52.066;6.096;2023-05-07T02:02:06;101541.68;;;17.95;47.50
47742;BME280;33504;52.066;6.096;2023-05-07T02:04:33;101544.70;;;17.96;47.49
47742;BME280;33504;52.066;6.096;2023-05-07T02:07:00;101546.07;;;18.15;47.67
47742;BME280;33504;52.066;6.096;2023-05-07T02:09:26;101551.13;;;17.69;47.56
47742;BME280;33504;52.066;6.096;2023-05-07T02:11:53;101555.87;;;17.95;47.61
47742;BME280;33504;52.066;6.096;2023-05-07T02:14:20;101559.06;;;17.95;47.72
47742;BME280;33504;52.066;6.096;2023-05-07T02:16:47;101557.97;;;17.95;47.63
47742;BME280;33504;52.066;6.096;2023-05-07T02:19:14;101556.77;;;17.93;47.68
47742;BME280;33504;52.066;6.096;2023-05-07T02:21:42;101557.78;;;17.91;47.55
47742;BME280;33504;52.066;6.096;2023-05-07T02:24:09;101557.87;;;18.13;47.57
47742;BME280;33504;52.066;6.096;2023-05-07T02:26:36;101557.75;;;17.88;47.60
47742;BME280;33504;52.066;6.096;2023-05-07T02:29:03;101556.44;;;18.09;47.56
47742;BME280;33504;52.066;6.096;2023-05-07T02:31:30;101555.72;;;17.63;47.50
47742;BME280;33504;52.066;6.096;2023-05-07T02:33:57;101558.99;;;17.82;47.56
47742;BME280;33504;52.066;6.096;2023-05-07T02:36:23;101557.42;;;18.03;47.60
47742;BME280;33504;52.066;6.096;2023-05-07T02:38:50;101558.89;;;17.58;47.66
47742;BME280;33504;52.066;6.096;2023-05-07T02:41:17;101555.96;;;17.78;47.66
47742;BME280;33504;52.066;6.096;2023-05-07T02:43:45;101555.30;;;17.72;47.68
47742;BME280;33504;52.066;6.096;2023-05-07T02:46:12;101552.53;;;17.95;47.76
47742;BME280;33504;52.066;6.096;2023-05-07T02:48:39;101551.33;;;17.94;47.72
47742;BME280;33504;52.066;6.096;2023-05-07T02:51:05;101550.46;;;17.90;47.82
47742;BME280;33504;52.066;6.096;2023-05-07T02:53:32;101550.52;;;17.89;47.75
47742;BME280;33504;52.066;6.096;2023-05-07T02:56:00;101552.87;;;17.85;47.78
47742;BME280;33504;52.066;6.096;2023-05-07T02:58:27;101552.24;;;17.59;47.78
47742;BME280;33504;52.066;6.096;2023-05-07T03:00:54;101553.76;;;17.80;47.84
47742;BME280;33504;52.066;6.096;2023-05-07T03:03:21;101556.49;;;17.56;47.70
47742;BME280;33504;52.066;6.096;2023-05-07T03:05:49;101561.17;;;17.76;47.66
47742;BME280;33504;52.066;6.096;2023-05-07T03:08:16;101564.01;;;17.75;47.78
47742;BME280;33504;52.066;6.096;2023-05-07T03:10:43;101564.73;;;17.75;47.79
47742;BME280;33504;52.066;6.096;2023-05-07T03:13:10;101562.29;;;17.76;47.89
47742;BME280;33504;52.066;6.096;2023-05-07T03:15:37;101562.07;;;17.74;47.82
47742;BME280;33504;52.066;6.096;2023-05-07T03:18:04;101563.12;;;17.50;47.74
47742;BME280;33504;52.066;6.096;2023-05-07T03:20:31;101562.20;;;17.70;47.72
47742;BME280;33504;52.066;6.096;2023-05-07T03:22:58;101561.64;;;17.69;47.81
47742;BME280;33504;52.066;6.096;2023-05-07T03:25:25;101558.05;;;17.45;47.71
47742;BME280;33504;52.066;6.096;2023-05-07T03:27:52;101558.74;;;17.65;47.66
47742;BME280;33504;52.066;6.096;2023-05-07T03:30:19;101560.36;;;17.61;47.69
47742;BME280;33504;52.066;6.096;2023-05-07T03:32:46;101557.68;;;17.37;47.66
47742;BME280;33504;52.066;6.096;2023-05-07T03:35:13;101561.38;;;17.58;47.82
47742;BME280;33504;52.066;6.096;2023-05-07T03:37:40;101563.22;;;17.57;47.76
47742;BME280;33504;52.066;6.096;2023-05-07T03:40:08;101561.54;;;17.55;47.76
47742;BME280;33504;52.066;6.096;2023-05-07T03:42:36;101559.90;;;17.54;47.82
47742;BME280;33504;52.066;6.096;2023-05-07T03:45:03;101558.41;;;17.52;47.86
47742;BME280;33504;52.066;6.096;2023-05-07T03:47:30;101559.21;;;17.53;47.92
47742;BME280;33504;52.066;6.096;2023-05-07T03:49:57;101559.66;;;17.53;47.98
47742;BME280;33504;52.066;6.096;2023-05-07T03:52:25;101560.20;;;17.78;47.95
47742;BME280;33504;52.066;6.096;2023-05-07T03:54:52;101558.57;;;17.54;47.99
47742;BME280;33504;52.066;6.096;2023-05-07T03:57:20;101560.50;;;17.55;48.03
47742;BME280;33504;52.066;6.096;2023-05-07T03:59:46;101562.90;;;17.52;47.98
47742;BME280;33504;52.066;6.096;2023-05-07T04:02:14;101563.57;;;17.52;47.95
47742;BME280;33504;52.066;6.096;2023-05-07T04:04:41;101562.76;;;17.50;47.89
47742;BME280;33504;52.066;6.096;2023-05-07T04:07:08;101568.84;;;17.27;47.99
47742;BME280;33504;52.066;6.096;2023-05-07T04:09:35;101570.36;;;17.47;48.00
47742;BME280;33504;52.066;6.096;2023-05-07T04:12:02;101569.86;;;17.47;48.08
47742;BME280;33504;52.066;6.096;2023-05-07T04:14:30;101568.30;;;17.74;48.09
47742;BME280;33504;52.066;6.096;2023-05-07T04:16:56;101568.23;;;17.45;48.02
47742;BME280;33504;52.066;6.096;2023-05-07T04:19:23;101567.65;;;17.25;48.03
47742;BME280;33504;52.066;6.096;2023-05-07T04:21:51;101571.22;;;17.48;48.09
47742;BME280;33504;52.066;6.096;2023-05-07T04:24:18;101571.21;;;17.49;48.07
47742;BME280;33504;52.066;6.096;2023-05-07T04:26:44;101577.88;;;17.55;48.07
47742;BME280;33504;52.066;6.096;2023-05-07T04:29:11;101581.02;;;17.55;48.01
47742;BME280;33504;52.066;6.096;2023-05-07T04:31:39;101584.36;;;17.57;47.99
47742;BME280;33504;52.066;6.096;2023-05-07T04:34:06;101584.47;;;17.36;47.96
47742;BME280;33504;52.066;6.096;2023-05-07T04:36:33;101582.19;;;17.65;48.00
47742;BME280;33504;52.066;6.096;2023-05-07T04:39:00;101583.14;;;17.65;47.97
47742;BME280;33504;52.066;6.096;2023-05-07T04:41:27;101583.59;;;17.71;47.95
47742;BME280;33504;52.066;6.096;2023-05-07T04:43:54;101579.70;;;17.64;48.11
47742;BME280;33504;52.066;6.096;2023-05-07T04:46:21;101578.90;;;17.70;48.04
47742;BME280;33504;52.066;6.096;2023-05-07T04:48:48;101584.32;;;17.52;48.15
47742;BME280;33504;52.066;6.096;2023-05-07T04:51:15;101589.08;;;17.77;48.00
47742;BME280;33504;52.066;6.096;2023-05-07T04:53:42;101598.32;;;17.56;48.19
47742;BME280;33504;52.066;6.096;2023-05-07T04:56:09;101600.08;;;18.09;48.31
47742;BME280;33504;52.066;6.096;2023-05-07T04:58:36;101596.42;;;17.86;48.10
47742;BME280;33504;52.066;6.096;2023-05-07T05:01:04;101599.44;;;17.84;48.23
47742;BME280;33504;52.066;6.096;2023-05-07T05:03:31;101600.57;;;17.86;48.33
47742;BME280;33504;52.066;6.096;2023-05-07T05:05:58;101604.74;;;17.63;48.34
47742;BME280;33504;52.066;6.096;2023-05-07T05:08:26;101604.66;;;17.62;48.40
47742;BME280;33504;52.066;6.096;2023-05-07T05:10:53;101602.74;;;17.85;48.41
47742;BME280;33504;52.066;6.096;2023-05-07T05:13:20;101606.04;;;17.43;48.48
47742;BME280;33504;52.066;6.096;2023-05-07T05:15:47;101606.13;;;17.63;48.47
47742;BME280;33504;52.066;6.096;2023-05-07T05:18:14;101609.25;;;17.79;48.63
47742;BME280;33504;52.066;6.096;2023-05-07T05:20:41;101612.66;;;17.59;48.53
47742;BME280;33504;52.066;6.096;2023-05-07T05:23:07;101613.85;;;17.72;49.14
47742;BME280;33504;52.066;6.096;2023-05-07T05:25:34;101614.72;;;17.49;48.76
47742;BME280;33504;52.066;6.096;2023-05-07T05:28:01;101613.09;;;17.71;48.87
47742;BME280;33504;52.066;6.096;2023-05-07T05:30:28;101616.55;;;17.76;48.91
47742;BME280;33504;52.066;6.096;2023-05-07T05:32:55;101619.41;;;17.71;49.10
47742;BME280;33504;52.066;6.096;2023-05-07T05:35:23;101621.66;;;17.53;49.00
47742;BME280;33504;52.066;6.096;2023-05-07T05:37:49;101622.55;;;17.57;48.96
47742;BME280;33504;52.066;6.096;2023-05-07T05:40:17;101620.49;;;17.76;49.07
47742;BME280;33504;52.066;6.096;2023-05-07T05:42:44;101622.19;;;17.85;49.08
47742;BME280;33504;52.066;6.096;2023-05-07T05:45:12;101623.88;;;17.96;49.08
47742;BME280;33504;52.066;6.096;2023-05-07T05:47:39;101627.04;;;17.52;48.99
47742;BME280;33504;52.066;6.096;2023-05-07T05:50:06;101629.48;;;17.82;48.82
47742;BME280;33504;52.066;6.096;2023-05-07T05:52:33;101631.38;;;17.41;49.15
47742;BME280;33504;52.066;6.096;2023-05-07T05:55:00;101629.79;;;18.27;48.86
47742;BME280;33504;52.066;6.096;2023-05-07T05:57:27;101633.94;;;17.82;48.85
47742;BME280;33504;52.066;6.096;2023-05-07T05:59:55;101638.70;;;17.77;48.86
47742;BME280;33504;52.066;6.096;2023-05-07T06:02:21;101642.54;;;17.56;48.66
47742;BME280;33504;52.066;6.096;2023-05-07T06:04:49;101643.94;;;17.57;48.82
47742;BME280;33504;52.066;6.096;2023-05-07T06:07:16;101646.63;;;18.00;48.73
47742;BME280;33504;52.066;6.096;2023-05-07T06:09:43;101647.51;;;18.10;48.72
47742;BME280;33504;52.066;6.096;2023-05-07T06:12:10;101649.88;;;17.71;48.90
47742;BME280;33504;52.066;6.096;2023-05-07T06:14:38;101651.66;;;17.61;48.95
47742;BME280;33504;52.066;6.096;2023-05-07T06:17:05;101650.47;;;17.42;48.77
47742;BME280;33504;52.066;6.096;2023-05-07T06:19:32;101650.64;;;17.67;48.72
47742;BME280;33504;52.066;6.096;2023-05-07T06:21:59;101653.03;;;17.79;48.60
47742;BME280;33504;52.066;6.096;2023-05-07T06:24:26;101653.10;;;18.04;48.59
47742;BME280;33504;52.066;6.096;2023-05-07T06:26:53;101652.13;;;17.66;49.00
47742;BME280;33504;52.066;6.096;2023-05-07T06:29:20;101648.25;;;17.89;48.62
47742;BME280;33504;52.066;6.096;2023-05-07T06:31:47;101646.15;;;17.63;49.12
47742;BME280;33504;52.066;6.096;2023-05-07T06:34:14;101645.46;;;17.97;48.79
47742;BME280;33504;52.066;6.096;2023-05-07T06:36:41;101648.73;;;17.77;48.90
47742;BME280;33504;52.066;6.096;2023-05-07T06:39:08;101651.75;;;17.81;49.15
47742;BME280;33504;52.066;6.096;2023-05-07T06:41:35;101655.24;;;17.74;49.12
47742;BME280;33504;52.066;6.096;2023-05-07T06:44:02;101659.21;;;17.65;48.92
47742;BME280;33504;52.066;6.096;2023-05-07T06:46:29;101656.78;;;17.65;49.06
47742;BME280;33504;52.066;6.096;2023-05-07T06:48:56;101657.92;;;17.95;48.87
47742;BME280;33504;52.066;6.096;2023-05-07T06:51:23;101659.91;;;18.01;48.86
47742;BME280;33504;52.066;6.096;2023-05-07T06:53:50;101661.36;;;17.83;48.76
47742;BME280;33504;52.066;6.096;2023-05-07T06:56:17;101658.83;;;17.94;48.57
47742;BME280;33504;52.066;6.096;2023-05-07T06:58:44;101665.55;;;17.64;48.92
47742;BME280;33504;52.066;6.096;2023-05-07T07:01:11;101670.03;;;17.48;48.64
47742;BME280;33504;52.066;6.096;2023-05-07T07:03:37;101667.53;;;17.59;48.42
47742;BME280;33504;52.066;6.096;2023-05-07T07:06:05;101672.60;;;17.69;48.61
47742;BME280;33504;52.066;6.096;2023-05-07T07:08:32;101669.79;;;17.60;48.42
47742;BME280;33504;52.066;6.096;2023-05-07T07:10:59;101672.54;;;18.03;48.37
47742;BME280;33504;52.066;6.096;2023-05-07T07:13:25;101669.75;;;17.44;49.06
47742;BME280;33504;52.066;6.096;2023-05-07T07:15:53;101672.47;;;17.76;48.80
47742;BME280;33504;52.066;6.096;2023-05-07T07:18:20;101667.52;;;18.06;48.41
47742;BME280;33504;52.066;6.096;2023-05-07T07:20:47;101667.67;;;18.03;48.43
47742;BME280;33504;52.066;6.096;2023-05-07T07:23:14;101667.33;;;17.53;48.55
47742;BME280;33504;52.066;6.096;2023-05-07T07:25:41;101669.46;;;17.31;48.96
47742;BME280;33504;52.066;6.096;2023-05-07T07:28:08;101668.26;;;17.67;48.59
47742;BME280;33504;52.066;6.096;2023-05-07T07:30:35;101668.33;;;17.94;48.54
47742;BME280;33504;52.066;6.096;2023-05-07T07:33:03;101667.58;;;17.98;48.06
47742;BME280;33504;52.066;6.096;2023-05-07T07:35:30;101668.25;;;18.30;47.80
47742;BME280;33504;52.066;6.096;2023-05-07T07:37:58;101668.58;;;18.34;48.30
47742;BME280;33504;52.066;6.096;2023-05-07T07:40:25;101666.47;;;18.38;47.58
47742;BME280;33504;52.066;6.096;2023-05-07T07:42:52;101664.11;;;18.31;47.50
47742;BME280;33504;52.066;6.096;2023-05-07T07:45:19;101669.63;;;18.53;47.54
47742;BME280;33504;52.066;6.096;2023-05-07T07:47:47;101671.05;;;18.47;47.44
47742;BME280;33504;52.066;6.096;2023-05-07T07:50:14;101673.62;;;18.68;47.17
47742;BME280;33504;52.066;6.096;2023-05-07T07:52:41;101677.05;;;18.60;46.60
47742;BME280;33504;52.066;6.096;2023-05-07T07:55:08;101677.26;;;18.10;47.19
47742;BME280;33504;52.066;6.096;2023-05-07T07:57:35;101679.29;;;18.67;46.87
47742;BME280;33504;52.066;6.096;2023-05-07T08:00:03;101680.62;;;18.63;46.85
47742;BME280;33504;52.066;6.096;2023-05-07T08:02:30;101682.29;;;18.61;47.36
47742;BME280;33504;52.066;6.096;2023-05-07T08:04:56;101682.10;;;18.80;46.77
47742;BME280;33504;52.066;6.096;2023-05-07T08:07:24;101680.18;;;19.07;46.17
47742;BME280;33504;52.066;6.096;2023-05-07T08:09:51;101683.10;;;19.26;46.06
47742;BME280;33504;52.066;6.096;2023-05-07T08:12:18;101685.04;;;18.86;46.31
47742;BME280;33504;52.066;6.096;2023-05-07T08:14:45;101685.17;;;19.07;45.99
47742;BME280;33504;52.066;6.096;2023-05-07T08:17:12;101683.98;;;18.98;46.18
47742;BME280;33504;52.066;6.096;2023-05-07T08:19:39;101685.10;;;19.36;46.22
47742;BME280;33504;52.066;6.096;2023-05-07T08:22:06;101682.65;;;19.24;46.03
47742;BME280;33504;52.066;6.096;2023-05-07T08:24:33;101681.09;;;19.28;45.80
47742;BME280;33504;52.066;6.096;2023-05-07T08:27:00;101681.03;;;19.76;45.81
47742;BME280;33504;52.066;6.096;2023-05-07T08:29:27;101685.12;;;19.91;45.16
47742;BME280;33504;52.066;6.096;2023-05-07T08:31:53;101683.13;;;19.54;45.05
47742;BME280;33504;52.066;6.096;2023-05-07T08:34:21;101685.67;;;19.61;44.90
47742;BME280;33504;52.066;6.096;2023-05-07T08:36:48;101688.44;;;19.56;44.78
47742;BME280;33504;52.066;6.096;2023-05-07T08:39:15;101688.23;;;19.74;44.41
47742;BME280;33504;52.066;6.096;2023-05-07T08:41:44;101688.51;;;19.44;44.86
47742;BME280;33504;52.066;6.096;2023-05-07T08:44:12;101687.62;;;19.35;45.29
47742;BME280;33504;52.066;6.096;2023-05-07T08:46:40;101687.24;;;19.54;45.00
47742;BME280;33504;52.066;6.096;2023-05-07T08:49:08;101689.91;;;19.79;45.04
47742;BME280;33504;52.066;6.096;2023-05-07T08:51:36;101685.93;;;19.97;44.45
47742;BME280;33504;52.066;6.096;2023-05-07T08:54:03;101686.22;;;20.06;43.96
47742;BME280;33504;52.066;6.096;2023-05-07T08:56:30;101687.91;;;20.40;44.26
47742;BME280;33504;52.066;6.096;2023-05-07T08:58:57;101685.94;;;20.35;43.90
47742;BME280;33504;52.066;6.096;2023-05-07T09:01:24;101686.84;;;19.96;44.59
47742;BME280;33504;52.066;6.096;2023-05-07T09:03:52;101690.29;;;20.34;44.28
47742;BME280;33504;52.066;6.096;2023-05-07T09:06:19;101690.79;;;20.17;44.08
47742;BME280;33504;52.066;6.096;2023-05-07T09:08:49;101687.09;;;20.08;44.09
47742;BME280;33504;52.066;6.096;2023-05-07T09:11:16;101687.82;;;20.52;44.76
47742;BME280;33504;52.066;6.096;2023-05-07T09:13:46;101687.71;;;20.75;44.03
47742;BME280;33504;52.066;6.096;2023-05-07T09:16:13;101690.24;;;20.38;44.50
47742;BME280;33504;52.066;6.096;2023-05-07T09:18:41;101691.78;;;20.64;43.88
47742;BME280;33504;52.066;6.096;2023-05-07T09:21:10;101693.03;;;21.17;44.05
47742;BME280;33504;52.066;6.096;2023-05-07T09:23:38;101693.31;;;21.19;43.55
47742;BME280;33504;52.066;6.096;2023-05-07T09:26:06;101694.10;;;21.66;43.66
47742;BME280;33504;52.066;6.096;2023-05-07T09:28:33;101694.57;;;21.42;42.92
47742;BME280;33504;52.066;6.096;2023-05-07T09:31:00;101693.75;;;21.62;43.23
47742;BME280;33504;52.066;6.096;2023-05-07T09:33:28;101693.12;;;21.73;42.23
47742;BME280;33504;52.066;6.096;2023-05-07T09:35:55;101690.78;;;22.00;41.92
47742;BME280;33504;52.066;6.096;2023-05-07T09:38:22;101686.34;;;21.85;42.11
47742;BME280;33504;52.066;6.096;2023-05-07T09:41:01;101684.92;;;22.39;41.46
47742;BME280;33504;52.066;6.096;2023-05-07T09:43:32;101687.17;;;22.18;41.05
47742;BME280;33504;52.066;6.096;2023-05-07T09:46:01;101686.24;;;22.26;40.81
47742;BME280;33504;52.066;6.096;2023-05-07T09:48:30;101684.16;;;22.56;40.90
47742;BME280;33504;52.066;6.096;2023-05-07T09:51:02;101683.69;;;22.41;40.59
47742;BME280;33504;52.066;6.096;2023-05-07T09:53:30;101684.13;;;22.82;40.82
47742;BME280;33504;52.066;6.096;2023-05-07T09:55:58;101682.61;;;22.89;39.75
47742;BME280;33504;52.066;6.096;2023-05-07T09:58:26;101683.32;;;22.28;40.15
47742;BME280;33504;52.066;6.096;2023-05-07T10:00:54;101687.34;;;22.98;39.91
47742;BME280;33504;52.066;6.096;2023-05-07T10:03:24;101688.71;;;22.96;39.57
47742;BME280;33504;52.066;6.096;2023-05-07T10:05:54;101691.92;;;22.82;39.02
47742;BME280;33504;52.066;6.096;2023-05-07T10:08:21;101693.70;;;22.95;38.98
47742;BME280;33504;52.066;6.096;2023-05-07T10:10:49;101692.54;;;23.00;39.25
47742;BME280;33504;52.066;6.096;2023-05-07T10:13:17;101688.40;;;23.47;39.15
47742;BME280;33504;52.066;6.096;2023-05-07T10:15:45;101685.74;;;24.02;38.72
47742;BME280;33504;52.066;6.096;2023-05-07T10:18:13;101689.48;;;23.98;37.97
47742;BME280;33504;52.066;6.096;2023-05-07T10:20:42;101691.88;;;24.35;37.24
47742;BME280;33504;52.066;6.096;2023-05-07T10:23:13;101687.60;;;24.37;37.19
47742;BME280;33504;52.066;6.096;2023-05-07T10:25:41;101688.13;;;24.63;37.17
47742;BME280;33504;52.066;6.096;2023-05-07T10:28:10;101686.10;;;24.38;36.96
47742;BME280;33504;52.066;6.096;2023-05-07T10:30:48;101691.75;;;24.69;37.21
47742;BME280;33504;52.066;6.096;2023-05-07T10:33:22;101690.07;;;24.27;36.71
47742;BME280;33504;52.066;6.096;2023-05-07T10:35:51;101693.16;;;24.30;37.17
47742;BME280;33504;52.066;6.096;2023-05-07T10:38:22;101691.56;;;24.42;37.85
47742;BME280;33504;52.066;6.096;2023-05-07T10:40:50;101691.36;;;23.93;38.55
47742;BME280;33504;52.066;6.096;2023-05-07T10:43:17;101696.01;;;23.72;37.98
47742;BME280;33504;52.066;6.096;2023-05-07T10:46:09;101695.49;;;23.96;37.71
47742;BME280;33504;52.066;6.096;2023-05-07T10:49:06;101694.86;;;23.30;38.93
47742;BME280;33504;52.066;6.096;2023-05-07T10:51:34;101686.43;;;24.01;38.60
47742;BME280;33504;52.066;6.096;2023-05-07T10:54:33;101686.06;;;24.90;38.13
47742;BME280;33504;52.066;6.096;2023-05-07T10:57:32;101684.86;;;24.67;37.89
47742;BME280;33504;52.066;6.096;2023-05-07T11:00:00;101684.43;;;25.03;37.28
47742;BME280;33504;52.066;6.096;2023-05-07T11:03:04;101687.97;;;25.54;36.80
47742;BME280;33504;52.066;6.096;2023-05-07T11:05:32;101686.84;;;25.59;35.91
47742;BME280;33504;52.066;6.096;2023-05-07T11:08:01;101688.81;;;25.59;35.32
47742;BME280;33504;52.066;6.096;2023-05-07T11:10:48;101684.91;;;25.43;35.17
47742;BME280;33504;52.066;6.096;2023-05-07T11:13:16;101682.91;;;26.11;34.70
47742;BME280;33504;52.066;6.096;2023-05-07T11:15:45;101676.77;;;26.58;33.96
47742;BME280;33504;52.066;6.096;2023-05-07T11:18:14;101674.92;;;25.96;33.94
47742;BME280;33504;52.066;6.096;2023-05-07T11:20:48;101674.15;;;26.22;33.33
47742;BME280;33504;52.066;6.096;2023-05-07T11:23:56;101670.88;;;27.23;32.80
47742;BME280;33504;52.066;6.096;2023-05-07T11:26:23;101672.76;;;26.98;32.88
47742;BME280;33504;52.066;6.096;2023-05-07T11:28:51;101672.80;;;27.13;32.12
47742;BME280;33504;52.066;6.096;2023-05-07T11:31:22;101672.58;;;27.50;31.64
47742;BME280;33504;52.066;6.096;2023-05-07T11:33:49;101678.51;;;27.31;31.59
47742;BME280;33504;52.066;6.096;2023-05-07T11:36:18;101680.18;;;27.30;31.48
47742;BME280;33504;52.066;6.096;2023-05-07T11:38:45;101683.57;;;27.13;32.00
47742;BME280;33504;52.066;6.096;2023-05-07T11:41:12;101680.93;;;27.13;30.95
47742;BME280;33504;52.066;6.096;2023-05-07T11:43:53;101680.18;;;26.63;31.64
47742;BME280;33504;52.066;6.096;2023-05-07T11:46:21;101681.55;;;26.91;31.18
47742;BME280;33504;52.066;6.096;2023-05-07T11:48:48;101682.79;;;27.38;30.84
47742;BME280;33504;52.066;6.096;2023-05-07T11:51:19;101680.30;;;27.73;30.18
47742;BME280;33504;52.066;6.096;2023-05-07T11:53:46;101682.62;;;28.16;30.20
47742;BME280;33504;52.066;6.096;2023-05-07T11:56:15;101679.28;;;27.93;30.10
47742;BME280;33504;52.066;6.096;2023-05-07T11:58:44;101678.96;;;27.93;30.20
47742;BME280;33504;52.066;6.096;2023-05-07T12:01:12;101678.58;;;28.15;29.08
47742;BME280;33504;52.066;6.096;2023-05-07T12:03:40;101676.05;;;28.65;29.39
47742;BME280;33504;52.066;6.096;2023-05-07T12:06:08;101677.41;;;28.37;28.61
47742;BME280;33504;52.066;6.096;2023-05-07T12:08:37;101676.12;;;28.50;28.77
47742;BME280;33504;52.066;6.096;2023-05-07T12:11:07;101675.97;;;28.29;28.80
47742;BME280;33504;52.066;6.096;2023-05-07T12:13:34;101675.03;;;28.66;29.03
47742;BME280;33504;52.066;6.096;2023-05-07T12:16:01;101674.57;;;27.70;29.20
47742;BME280;33504;52.066;6.096;2023-05-07T12:18:29;101668.33;;;28.00;29.13
47742;BME280;33504;52.066;6.096;2023-05-07T12:20:56;101666.38;;;27.43;30.07
47742;BME280;33504;52.066;6.096;2023-05-07T12:23:23;101672.05;;;26.91;30.69
47742;BME280;33504;52.066;6.096;2023-05-07T12:25:50;101674.11;;;27.31;30.81
47742;BME280;33504;52.066;6.096;2023-05-07T12:28:18;101673.59;;;27.70;30.69
47742;BME280;33504;52.066;6.096;2023-05-07T12:30:47;101679.27;;;27.08;30.39
47742;BME280;33504;52.066;6.096;2023-05-07T12:33:16;101680.04;;;27.33;30.55
47742;BME280;33504;52.066;6.096;2023-05-07T12:35:44;101673.27;;;27.92;29.44
47742;BME280;33504;52.066;6.096;2023-05-07T12:38:12;101673.00;;;27.51;29.70
47742;BME280;33504;52.066;6.096;2023-05-07T12:40:41;101674.03;;;27.65;29.03
47742;BME280;33504;52.066;6.096;2023-05-07T12:43:15;101674.12;;;27.58;29.40
47742;BME280;33504;52.066;6.096;2023-05-07T12:45:42;101671.77;;;27.88;28.36
47742;BME280;33504;52.066;6.096;2023-05-07T12:48:11;101672.63;;;28.28;29.22
47742;BME280;33504;52.066;6.096;2023-05-07T12:50:38;101674.15;;;27.68;28.62
47742;BME280;33504;52.066;6.096;2023-05-07T12:53:06;101675.12;;;27.62;28.66
47742;BME280;33504;52.066;6.096;2023-05-07T12:55:40;101678.68;;;27.83;29.19